createdAt,value
2023-06-24T00:01:21.284Z,17.97
2023-06-24T00:04:20.081Z,17.95
2023-06-24T00:07:18.025Z,17.94
2023-06-24T00:10:17.083Z,17.92
2023-06-24T00:13:30.290Z,17.91
2023-06-24T00:16:30.981Z,17.89
2023-06-24T00:19:28.756Z,17.85
2023-06-24T00:22:26.532Z,17.83
2023-06-24T00:25:24.159Z,17.82
2023-06-24T00:28:21.829Z,17.80
2023-06-24T00:31:19.338Z,17.78
2023-06-24T00:34:17.895Z,17.76
2023-06-24T00:37:15.670Z,17.75
2023-06-24T00:40:17.077Z,17.74
2023-06-24T00:43:14.833Z,17.73
2023-06-24T00:46:12.281Z,17.74
2023-06-24T00:49:09.998Z,17.73
2023-06-24T00:52:07.525Z,17.73
2023-06-24T00:55:05.772Z,17.73
2023-06-24T00:58:04.161Z,17.73
2023-06-24T01:01:02.705Z,17.71
2023-06-24T01:04:00.402Z,17.70
2023-06-24T01:06:57.925Z,17.70
2023-06-24T01:09:56.615Z,17.69
2023-06-24T01:12:54.336Z,17.68
2023-06-24T01:15:52.020Z,17.68
2023-06-24T01:18:49.447Z,17.67
2023-06-24T01:21:47.120Z,17.67
2023-06-24T01:24:44.819Z,17.67
2023-06-24T01:27:43.430Z,17.67
2023-06-24T01:30:42.958Z,17.68
2023-06-24T01:33:41.076Z,17.67
2023-06-24T01:36:38.663Z,17.69
2023-06-24T01:39:36.435Z,17.72
2023-06-24T01:42:34.300Z,17.74
2023-06-24T01:45:31.927Z,17.76
2023-06-24T01:48:29.854Z,17.77
2023-06-24T01:51:27.322Z,17.79
2023-06-24T01:54:25.198Z,17.80
2023-06-24T01:57:22.924Z,17.81
2023-06-24T02:00:20.437Z,17.83
2023-06-24T02:03:18.311Z,17.84
2023-06-24T02:06:16.477Z,17.84
2023-06-24T02:09:14.208Z,17.85
2023-06-24T02:12:11.649Z,17.86
2023-06-24T02:15:09.445Z,17.85
2023-06-24T02:18:06.934Z,17.85
2023-06-24T02:21:04.817Z,17.84
2023-06-24T02:24:02.568Z,17.83
2023-06-24T02:27:00.311Z,17.80
2023-06-24T02:29:58.692Z,17.81
2023-06-24T02:32:56.719Z,17.80
2023-06-24T02:35:54.204Z,17.77
2023-06-24T02:38:52.055Z,17.76
2023-06-24T02:41:50.753Z,17.76
2023-06-24T02:44:48.694Z,17.75
2023-06-24T02:47:46.214Z,17.73
2023-06-24T02:50:45.542Z,17.72
2023-06-24T02:53:43.607Z,17.71
2023-06-24T02:56:43.025Z,17.69
2023-06-24T02:59:40.978Z,17.66
2023-06-24T03:02:38.514Z,17.64
2023-06-24T03:05:36.908Z,17.61
2023-06-24T03:08:34.610Z,17.58
2023-06-24T03:11:32.582Z,17.56
2023-06-24T03:14:30.528Z,17.55
2023-06-24T03:17:28.056Z,17.55
2023-06-24T03:20:26.470Z,17.54
2023-06-24T03:23:23.936Z,17.52
2023-06-24T03:26:21.961Z,17.48
2023-06-24T03:29:19.409Z,17.45
2023-06-24T03:32:17.412Z,17.44
2023-06-24T03:35:15.307Z,17.43
2023-06-24T03:38:13.411Z,17.41
2023-06-24T03:41:11.357Z,17.38
2023-06-24T03:44:08.856Z,17.35
2023-06-24T03:47:06.706Z,17.32
2023-06-24T03:50:04.299Z,17.28
2023-06-24T03:53:02.109Z,17.24
2023-06-24T03:55:59.533Z,17.20
2023-06-24T03:58:57.352Z,17.19
2023-06-24T04:01:55.342Z,17.17
2023-06-24T04:04:53.207Z,17.15
2023-06-24T04:07:51.999Z,17.12
2023-06-24T04:10:49.950Z,17.09
2023-06-24T04:13:49.721Z,17.08
2023-06-24T04:16:47.752Z,17.07
2023-06-24T04:19:46.273Z,17.06
2023-06-24T04:22:43.715Z,17.06
2023-06-24T04:25:41.843Z,17.05
2023-06-24T04:28:39.742Z,17.04
2023-06-24T04:31:37.659Z,17.06
2023-06-24T04:34:35.624Z,17.08
2023-06-24T04:37:33.667Z,17.11
2023-06-24T04:40:32.193Z,17.13
2023-06-24T04:43:30.174Z,17.16
2023-06-24T04:46:28.149Z,17.23
2023-06-24T04:49:26.132Z,17.27
2023-06-24T04:52:24.016Z,17.28
2023-06-24T04:55:21.554Z,17.27
2023-06-24T04:58:19.539Z,17.26
2023-06-24T05:01:17.118Z,17.25
2023-06-24T05:04:15.135Z,17.25
2023-06-24T05:07:13.598Z,17.27
2023-06-24T05:10:11.639Z,17.29
2023-06-24T05:13:09.561Z,17.33
2023-06-24T05:16:07.011Z,17.39
2023-06-24T05:19:05.049Z,17.43
2023-06-24T05:22:02.562Z,17.47
2023-06-24T05:25:00.490Z,17.52
2023-06-24T05:27:57.934Z,17.54
2023-06-24T05:30:56.860Z,17.59
2023-06-24T05:33:55.008Z,17.63
2023-06-24T05:36:52.923Z,17.67
2023-06-24T05:39:50.829Z,17.71
2023-06-24T05:42:48.918Z,17.71
2023-06-24T05:45:46.478Z,17.71
2023-06-24T05:48:44.880Z,17.76
2023-06-24T05:51:42.363Z,17.81
2023-06-24T05:54:40.281Z,17.83
2023-06-24T05:57:37.727Z,17.88
2023-06-24T06:00:36.281Z,17.93
2023-06-24T06:03:34.188Z,17.96
2023-06-24T06:06:31.682Z,18.02
2023-06-24T06:09:29.655Z,18.04
2023-06-24T06:12:27.160Z,18.03
2023-06-24T06:15:25.073Z,18.03
2023-06-24T06:18:22.497Z,18.03
2023-06-24T06:21:20.507Z,18.01
2023-06-24T06:24:17.973Z,17.98
2023-06-24T06:27:16.046Z,17.98
2023-06-24T06:30:13.505Z,18.00
2023-06-24T06:33:11.495Z,18.02
2023-06-24T06:36:09.477Z,18.03
2023-06-24T06:39:07.350Z,18.03
2023-06-24T06:42:05.291Z,18.10
2023-06-24T06:45:03.178Z,18.20
2023-06-24T06:48:00.662Z,18.27
2023-06-24T06:50:58.480Z,18.34
2023-06-24T06:53:55.949Z,18.43
2023-06-24T06:56:53.942Z,18.47
2023-06-24T06:59:52.119Z,18.51
2023-06-24T07:02:50.045Z,18.52
2023-06-24T07:05:48.354Z,18.45
2023-06-24T07:08:45.985Z,18.35
2023-06-24T07:11:43.442Z,18.27
2023-06-24T07:14:41.252Z,18.24
2023-06-24T07:17:38.759Z,18.25
2023-06-24T07:20:36.685Z,18.23
2023-06-24T07:23:34.133Z,18.20
2023-06-24T07:26:32.118Z,18.18
2023-06-24T07:29:29.629Z,18.18
2023-06-24T07:32:27.537Z,18.22
2023-06-24T07:35:25.128Z,18.26
2023-06-24T07:38:23.083Z,18.29
2023-06-24T07:41:21.638Z,18.32
2023-06-24T07:44:20.269Z,18.34
2023-06-24T07:47:18.128Z,18.33
2023-06-24T07:50:15.993Z,18.35
2023-06-24T07:53:13.912Z,18.39
2023-06-24T07:56:11.375Z,18.42
2023-06-24T07:59:09.290Z,18.44
2023-06-24T08:02:07.204Z,18.42
2023-06-24T08:05:04.712Z,18.36
2023-06-24T08:08:02.552Z,18.35
2023-06-24T08:10:59.995Z,18.38
2023-06-24T08:13:57.605Z,18.42
2023-06-24T08:16:55.545Z,18.47
2023-06-24T08:19:53.113Z,18.55
2023-06-24T08:22:51.030Z,18.61
2023-06-24T08:25:48.507Z,18.67
2023-06-24T08:28:46.370Z,18.70
2023-06-24T08:31:43.786Z,18.70
2023-06-24T08:34:41.653Z,18.71
2023-06-24T08:37:39.098Z,18.70
2023-06-24T08:40:37.220Z,18.68
2023-06-24T08:43:35.093Z,18.68
2023-06-24T08:46:34.562Z,18.71
2023-06-24T08:49:32.621Z,18.75
2023-06-24T08:52:30.758Z,18.78
2023-06-24T08:55:28.649Z,18.82
2023-06-24T08:58:26.138Z,18.83
2023-06-24T09:01:24.447Z,18.84
2023-06-24T09:04:22.102Z,18.87
2023-06-24T09:07:20.018Z,18.91
2023-06-24T09:10:17.590Z,18.92
2023-06-24T09:13:15.618Z,18.96
2023-06-24T09:16:13.041Z,18.98
2023-06-24T09:19:10.951Z,19.04
2023-06-24T09:22:08.397Z,19.08
2023-06-24T09:25:06.286Z,19.09
2023-06-24T09:28:03.770Z,19.13
2023-06-24T09:31:10.552Z,19.17
2023-06-24T09:34:17.474Z,19.22
2023-06-24T09:37:14.970Z,19.29
2023-06-24T09:40:12.595Z,19.34
2023-06-24T09:43:10.993Z,19.38
2023-06-24T09:46:09.283Z,19.38
2023-06-24T09:49:07.260Z,19.37
2023-06-24T09:52:04.726Z,19.36
2023-06-24T09:55:05.527Z,19.37
2023-06-24T09:58:03.552Z,19.33
2023-06-24T10:01:01.614Z,19.26
2023-06-24T10:03:59.171Z,19.26
2023-06-24T10:06:57.174Z,19.32
2023-06-24T10:09:54.701Z,19.34
2023-06-24T10:12:52.194Z,19.30
2023-06-24T10:15:50.146Z,19.28
2023-06-24T10:18:48.334Z,19.26
2023-06-24T10:21:46.170Z,19.22
2023-06-24T10:24:45.516Z,19.19
2023-06-24T10:27:44.101Z,19.13
2023-06-24T10:30:41.729Z,19.04
2023-06-24T10:33:39.613Z,19.01
2023-06-24T10:36:37.104Z,19.04
2023-06-24T10:39:35.043Z,19.11
2023-06-24T10:42:32.774Z,19.20
2023-06-24T10:45:30.811Z,19.33
2023-06-24T10:48:28.314Z,19.46
2023-06-24T10:51:25.841Z,19.66
2023-06-24T10:54:23.294Z,19.86
2023-06-24T10:57:21.142Z,19.96
2023-06-24T11:00:18.675Z,19.92
2023-06-24T11:03:16.897Z,19.84
2023-06-24T11:06:14.478Z,19.82
2023-06-24T11:09:12.414Z,19.82
2023-06-24T11:12:09.851Z,19.77
2023-06-24T11:15:10.091Z,19.70
2023-06-24T11:18:10.518Z,19.64
2023-06-24T11:21:08.003Z,19.58
2023-06-24T11:24:05.958Z,19.54
2023-06-24T11:27:03.493Z,19.48
2023-06-24T11:30:03.215Z,19.38
2023-06-24T11:33:00.733Z,19.30
2023-06-24T11:35:58.654Z,19.23
2023-06-24T11:38:56.521Z,19.11
2023-06-24T11:41:54.014Z,19.00
2023-06-24T11:44:51.692Z,18.92
2023-06-24T11:47:49.822Z,18.84
2023-06-24T11:50:47.921Z,18.78
2023-06-24T11:53:45.465Z,18.73
2023-06-24T11:56:43.429Z,18.72
2023-06-24T11:59:40.869Z,18.71
2023-06-24T12:02:38.831Z,18.70
2023-06-24T12:05:37.124Z,18.72
2023-06-24T12:08:50.486Z,18.72
2023-06-24T12:11:49.192Z,18.71
2023-06-24T12:14:47.057Z,18.72
2023-06-24T12:17:44.552Z,18.74
2023-06-24T12:20:42.574Z,18.76
2023-06-24T12:23:40.304Z,18.75
2023-06-24T12:26:39.442Z,18.73
2023-06-24T12:29:37.043Z,18.72
2023-06-24T12:32:35.069Z,18.74
2023-06-24T12:35:32.587Z,18.80
2023-06-24T12:38:30.736Z,18.90
2023-06-24T12:41:29.315Z,19.02
2023-06-24T12:44:27.392Z,19.14
2023-06-24T12:47:24.917Z,19.21
2023-06-24T12:50:22.822Z,19.23
2023-06-24T12:53:20.278Z,19.24
2023-06-24T12:56:18.161Z,19.17
2023-06-24T12:59:16.018Z,19.09
2023-06-24T13:02:13.511Z,19.05
2023-06-24T13:05:11.647Z,19.02
2023-06-24T13:08:12.085Z,19.05
2023-06-24T13:11:09.599Z,19.10
2023-06-24T13:14:07.515Z,19.14
2023-06-24T13:17:05.507Z,19.16
2023-06-24T13:20:05.303Z,19.15
2023-06-24T13:23:02.831Z,19.10
2023-06-24T13:26:00.847Z,19.06
2023-06-24T13:28:58.268Z,18.97
2023-06-24T13:31:56.047Z,18.95
2023-06-24T13:34:53.722Z,18.93
2023-06-24T13:37:51.621Z,18.92
2023-06-24T13:40:49.134Z,18.89
2023-06-24T13:43:47.035Z,18.89
2023-06-24T13:46:44.568Z,18.92
2023-06-24T13:49:42.562Z,18.97
2023-06-24T13:52:40.253Z,19.02
2023-06-24T13:55:38.602Z,19.01
2023-06-24T13:58:36.190Z,19.06
2023-06-24T14:01:34.258Z,19.13
2023-06-24T14:04:31.780Z,19.21
2023-06-24T14:07:30.525Z,19.29
2023-06-24T14:10:28.082Z,19.33
2023-06-24T14:13:25.615Z,19.34
2023-06-24T14:16:23.078Z,19.38
2023-06-24T14:19:20.559Z,19.45
2023-06-24T14:22:18.685Z,19.53
2023-06-24T14:25:16.180Z,19.64
2023-06-24T14:28:14.100Z,19.72
2023-06-24T14:31:11.917Z,19.80
2023-06-24T14:34:09.982Z,19.89
2023-06-24T14:37:07.588Z,19.94
2023-06-24T14:40:05.177Z,20.04
2023-06-24T14:43:02.679Z,20.16
2023-06-24T14:46:00.929Z,20.30
2023-06-24T14:48:58.831Z,20.43
2023-06-24T14:51:56.330Z,20.56
2023-06-24T14:54:54.455Z,20.70
2023-06-24T14:57:52.325Z,20.83
2023-06-24T15:00:50.098Z,21.01
2023-06-24T15:03:48.069Z,21.20
2023-06-24T15:06:47.323Z,21.33
2023-06-24T15:09:45.424Z,21.37
2023-06-24T15:12:43.535Z,21.37
2023-06-24T15:15:41.031Z,21.39
2023-06-24T15:18:39.806Z,21.35
2023-06-24T15:21:37.643Z,21.29
2023-06-24T15:24:35.737Z,21.28
2023-06-24T15:27:33.177Z,21.28
2023-06-24T15:30:31.263Z,21.23
2023-06-24T15:33:28.697Z,21.15
2023-06-24T15:36:28.337Z,21.05
2023-06-24T15:39:25.837Z,21.03
2023-06-24T15:42:23.813Z,21.02
2023-06-24T15:45:22.749Z,20.98
2023-06-24T15:48:20.232Z,20.92
2023-06-24T15:51:18.205Z,20.88
2023-06-24T15:54:16.381Z,20.83
2023-06-24T15:57:13.841Z,20.83
2023-06-24T16:00:11.892Z,20.80
2023-06-24T16:03:10.132Z,20.78
2023-06-24T16:06:07.678Z,20.84
2023-06-24T16:09:05.608Z,21.00
2023-06-24T16:12:03.505Z,21.25
2023-06-24T16:15:01.028Z,21.44
2023-06-24T16:17:58.919Z,21.55
2023-06-24T16:20:56.367Z,21.63
2023-06-24T16:23:54.397Z,21.60
2023-06-24T16:26:53.171Z,21.51
2023-06-24T16:29:50.860Z,21.41
2023-06-24T16:32:49.924Z,21.33
2023-06-24T16:35:47.766Z,21.24
2023-06-24T16:38:45.862Z,21.15
2023-06-24T16:41:43.494Z,21.07
2023-06-24T16:44:40.977Z,21.01
2023-06-24T16:47:38.874Z,20.96
2023-06-24T16:50:36.796Z,20.93
2023-06-24T16:53:34.894Z,20.91
2023-06-24T16:56:32.422Z,20.91
2023-06-24T16:59:30.242Z,20.88
2023-06-24T17:02:27.791Z,20.85
2023-06-24T17:05:25.757Z,20.85
2023-06-24T17:08:23.710Z,20.84
2023-06-24T17:11:21.124Z,20.82
2023-06-24T17:14:18.964Z,20.81
2023-06-24T17:17:16.455Z,20.77
2023-06-24T17:20:14.535Z,20.72
2023-06-24T17:23:12.033Z,20.69
2023-06-24T17:26:11.113Z,20.66
2023-06-24T17:29:09.124Z,20.60
2023-06-24T17:32:06.981Z,20.55
2023-06-24T17:35:04.538Z,20.44
2023-06-24T17:38:02.306Z,20.30
2023-06-24T17:40:59.802Z,20.20
2023-06-24T17:43:57.343Z,20.08
2023-06-24T17:46:55.204Z,19.98
2023-06-24T17:49:52.679Z,19.90
2023-06-24T17:52:50.534Z,19.83
2023-06-24T17:55:47.954Z,19.79
2023-06-24T17:58:45.978Z,19.76
2023-06-24T18:01:43.596Z,19.74
2023-06-24T18:04:41.592Z,19.72
2023-06-24T18:07:39.045Z,19.69
2023-06-24T18:10:37.645Z,19.68
2023-06-24T18:13:35.906Z,19.67
2023-06-24T18:16:34.709Z,19.66
2023-06-24T18:19:32.210Z,19.65
2023-06-24T18:22:30.244Z,19.64
2023-06-24T18:25:27.748Z,19.63
2023-06-24T18:28:25.591Z,19.63
2023-06-24T18:31:23.118Z,19.63
2023-06-24T18:34:20.787Z,19.63
2023-06-24T18:37:18.837Z,19.64
2023-06-24T18:40:16.678Z,19.63
2023-06-24T18:43:14.836Z,19.61
2023-06-24T18:46:12.322Z,19.61
2023-06-24T18:49:09.918Z,19.61
2023-06-24T18:52:07.363Z,19.60
2023-06-24T18:55:05.180Z,19.59
2023-06-24T18:58:03.241Z,19.57
2023-06-24T19:01:00.745Z,19.52
2023-06-24T19:03:58.378Z,19.47
2023-06-24T19:06:55.896Z,19.45
2023-06-24T19:09:53.705Z,19.42
2023-06-24T19:12:53.657Z,19.38
2023-06-24T19:15:51.210Z,19.34
2023-06-24T19:18:48.830Z,19.31
2023-06-24T19:21:46.268Z,19.28
2023-06-24T19:24:44.206Z,19.27
2023-06-24T19:27:41.710Z,19.25
2023-06-24T19:30:39.555Z,19.25
2023-06-24T19:33:37.306Z,19.22
2023-06-24T19:36:34.893Z,19.19
2023-06-24T19:39:32.537Z,19.15
2023-06-24T19:42:30.042Z,19.12
2023-06-24T19:45:27.786Z,19.08
2023-06-24T19:48:25.294Z,19.04
2023-06-24T19:51:23.156Z,19.01
2023-06-24T19:54:21.041Z,18.98
2023-06-24T19:57:18.478Z,18.94
2023-06-24T20:00:18.045Z,18.91
2023-06-24T20:03:15.689Z,18.90
2023-06-24T20:06:13.461Z,18.86
2023-06-24T20:09:11.530Z,18.85
2023-06-24T20:12:09.386Z,18.83
2023-06-24T20:15:07.415Z,18.80
2023-06-24T20:18:05.084Z,18.81
2023-06-24T20:21:03.111Z,18.81
2023-06-24T20:24:00.593Z,18.81
2023-06-24T20:26:58.439Z,18.81
2023-06-24T20:29:55.936Z,18.81
2023-06-24T20:32:53.577Z,18.80
2023-06-24T20:35:51.428Z,18.79
2023-06-24T20:38:48.905Z,18.79
2023-06-24T20:41:46.655Z,18.76
2023-06-24T20:44:44.087Z,18.75
2023-06-24T20:47:57.010Z,18.71
2023-06-24T20:50:54.521Z,18.68
2023-06-24T20:53:52.153Z,18.66
2023-06-24T20:56:49.897Z,18.63
2023-06-24T20:59:47.365Z,18.60
2023-06-24T21:02:45.077Z,18.58
2023-06-24T21:05:42.770Z,18.56
2023-06-24T21:08:40.578Z,18.53
2023-06-24T21:11:38.076Z,18.49
2023-06-24T21:14:35.817Z,18.44
2023-06-24T21:17:33.518Z,18.39
2023-06-24T21:20:31.030Z,18.35
2023-06-24T21:23:28.821Z,18.33
2023-06-24T21:26:26.320Z,18.29
2023-06-24T21:29:24.040Z,18.25
2023-06-24T21:32:21.520Z,18.23
2023-06-24T21:35:19.206Z,18.21
2023-06-24T21:38:16.731Z,18.21
2023-06-24T21:41:14.507Z,18.22
2023-06-24T21:44:12.281Z,18.22
2023-06-24T21:47:09.741Z,18.23
2023-06-24T21:50:08.203Z,18.21
2023-06-24T21:53:05.616Z,18.19
2023-06-24T21:56:03.540Z,18.18
2023-06-24T21:59:01.073Z,18.15
2023-06-24T22:01:58.723Z,18.11
2023-06-24T22:04:56.252Z,18.08
2023-06-24T22:07:53.747Z,18.04
2023-06-24T22:10:51.265Z,18.00
2023-06-24T22:13:49.027Z,17.95
2023-06-24T22:16:46.698Z,17.92
2023-06-24T22:19:44.441Z,17.88
2023-06-24T22:22:42.149Z,17.86
2023-06-24T22:25:39.653Z,17.83
2023-06-24T22:28:37.322Z,17.82
2023-06-24T22:31:34.892Z,17.80
2023-06-24T22:34:32.867Z,17.79
2023-06-24T22:37:30.448Z,17.77
2023-06-24T22:40:28.125Z,17.77
2023-06-24T22:43:25.854Z,17.75
2023-06-24T22:46:23.358Z,17.75
2023-06-24T22:49:21.279Z,17.73
2023-06-24T22:52:18.721Z,17.72
2023-06-24T22:55:16.517Z,17.69
2023-06-24T22:58:13.965Z,17.68
2023-06-24T23:01:11.729Z,17.66
2023-06-24T23:04:09.625Z,17.63
2023-06-24T23:07:07.117Z,17.62
2023-06-24T23:10:04.812Z,17.60
2023-06-24T23:13:02.293Z,17.58
2023-06-24T23:16:00.069Z,17.56
2023-06-24T23:18:57.547Z,17.53
2023-06-24T23:21:55.263Z,17.50
2023-06-24T23:24:55.083Z,17.50
2023-06-24T23:27:52.545Z,17.47
2023-06-24T23:30:50.244Z,17.44
2023-06-24T23:33:47.766Z,17.41
2023-06-24T23:36:46.157Z,17.39
2023-06-24T23:39:44.598Z,17.37
2023-06-24T23:42:42.397Z,17.34
2023-06-24T23:45:40.198Z,17.32
2023-06-24T23:48:37.852Z,17.30
2023-06-24T23:51:35.650Z,17.29
2023-06-24T23:54:33.096Z,17.28
2023-06-24T23:57:30.780Z,17.27
